sensor_id;sensor_type;location;lat;lon;timestamp;P1;durP1;ratioP1;P2;durP2;ratioP2
39654;SDS011;25336;59.944;11.010;2022-07-29T00:01:21;1.05;;;0.93;;
39654;SDS011;25336;59.944;11.010;2022-07-29T00:03:46;3.00;;;1.00;;
39654;SDS011;25336;59.944;11.010;2022-07-29T00:06:13;1.10;;;1.10;;
39654;SDS011;25336;59.944;11.010;2022-07-29T00:08:39;2.53;;;0.98;;
39654;SDS011;25336;59.944;11.010;2022-07-29T00:11:05;3.88;;;0.90;;
39654;SDS011;25336;59.944;11.010;2022-07-29T00:13:30;4.93;;;0.90;;
39654;SDS011;25336;59.944;11.010;2022-07-29T00:15:56;2.30;;;0.80;;
39654;SDS011;25336;59.944;11.010;2022-07-29T00:18:24;3.53;;;1.25;;
39654;SDS011;25336;59.944;11.010;2022-07-29T00:20:50;1.17;;;1.08;;
39654;SDS011;25336;59.944;11.010;2022-07-29T00:23:15;1.35;;;1.02;;
39654;SDS011;25336;59.944;11.010;2022-07-29T00:25:41;2.53;;;0.90;;
39654;SDS011;25336;59.944;11.010;2022-07-29T00:28:07;1.85;;;1.10;;
39654;SDS011;25336;59.944;11.010;2022-07-29T00:30:35;1.90;;;0.98;;
39654;SDS011;25336;59.944;11.010;2022-07-29T00:33:01;1.10;;;1.00;;
39654;SDS011;25336;59.944;11.010;2022-07-29T00:35:26;1.65;;;0.90;;
39654;SDS011;25336;59.944;11.010;2022-07-29T00:38:11;1.48;;;1.10;;
39654;SDS011;25336;59.944;11.010;2022-07-29T00:40:37;0.98;;;0.98;;
39654;SDS011;25336;59.944;11.010;2022-07-29T00:43:03;2.67;;;1.27;;
39654;SDS011;25336;59.944;11.010;2022-07-29T00:45:29;0.95;;;0.82;;
39654;SDS011;25336;59.944;11.010;2022-07-29T00:47:55;3.33;;;1.10;;
39654;SDS011;25336;59.944;11.010;2022-07-29T00:50:21;3.50;;;1.65;;
39654;SDS011;25336;59.944;11.010;2022-07-29T00:52:46;3.03;;;1.10;;
39654;SDS011;25336;59.944;11.010;2022-07-29T00:55:13;1.52;;;0.90;;
39654;SDS011;25336;59.944;11.010;2022-07-29T00:57:41;1.17;;;1.00;;
39654;SDS011;25336;59.944;11.010;2022-07-29T01:00:08;2.28;;;1.20;;
39654;SDS011;25336;59.944;11.010;2022-07-29T01:02:36;1.23;;;1.10;;
39654;SDS011;25336;59.944;11.010;2022-07-29T01:05:02;1.23;;;0.90;;
39654;SDS011;25336;59.944;11.010;2022-07-29T01:07:30;1.13;;;1.05;;
39654;SDS011;25336;59.944;11.010;2022-07-29T01:09:56;2.63;;;1.00;;
39654;SDS011;25336;59.944;11.010;2022-07-29T01:12:26;1.30;;;1.20;;
39654;SDS011;25336;59.944;11.010;2022-07-29T01:14:53;1.42;;;1.00;;
39654;SDS011;25336;59.944;11.010;2022-07-29T01:17:41;0.90;;;0.90;;
39654;SDS011;25336;59.944;11.010;2022-07-29T01:23:15;1.55;;;0.95;;
39654;SDS011;25336;59.944;11.010;2022-07-29T01:31:07;2.30;;;1.20;;
39654;SDS011;25336;59.944;11.010;2022-07-29T01:33:43;3.63;;;0.90;;
39654;SDS011;25336;59.944;11.010;2022-07-29T01:39:22;2.70;;;0.90;;
39654;SDS011;25336;59.944;11.010;2022-07-29T01:42:02;3.53;;;1.05;;
39654;SDS011;25336;59.944;11.010;2022-07-29T01:44:41;1.42;;;0.90;;
39654;SDS011;25336;59.944;11.010;2022-07-29T01:47:17;0.90;;;0.90;;
39654;SDS011;25336;59.944;11.010;2022-07-29T01:49:49;2.20;;;1.35;;
39654;SDS011;25336;59.944;11.010;2022-07-29T01:52:25;0.95;;;0.95;;
39654;SDS011;25336;59.944;11.010;2022-07-29T01:54:57;1.95;;;1.50;;
39654;SDS011;25336;59.944;11.010;2022-07-29T01:57:27;1.15;;;1.05;;
39654;SDS011;25336;59.944;11.010;2022-07-29T01:59:56;0.88;;;0.88;;
39654;SDS011;25336;59.944;11.010;2022-07-29T02:02:25;1.02;;;1.00;;
39654;SDS011;25336;59.944;11.010;2022-07-29T02:04:52;3.03;;;1.00;;
39654;SDS011;25336;59.944;11.010;2022-07-29T02:07:19;1.10;;;1.00;;
39654;SDS011;25336;59.944;11.010;2022-07-29T02:09:49;1.90;;;1.08;;
39654;SDS011;25336;59.944;11.010;2022-07-29T02:12:18;3.03;;;1.10;;
39654;SDS011;25336;59.944;11.010;2022-07-29T02:14:46;3.03;;;1.20;;
39654;SDS011;25336;59.944;11.010;2022-07-29T02:17:14;1.40;;;1.00;;
39654;SDS011;25336;59.944;11.010;2022-07-29T02:19:45;1.02;;;0.93;;
39654;SDS011;25336;59.944;11.010;2022-07-29T02:22:12;0.77;;;0.77;;
39654;SDS011;25336;59.944;11.010;2022-07-29T02:24:39;1.23;;;1.10;;
39654;SDS011;25336;59.944;11.010;2022-07-29T02:27:05;2.15;;;1.17;;
39654;SDS011;25336;59.944;11.010;2022-07-29T02:29:33;0.95;;;0.82;;
39654;SDS011;25336;59.944;11.010;2022-07-29T02:32:01;1.25;;;1.15;;
39654;SDS011;25336;59.944;11.010;2022-07-29T02:34:28;3.50;;;1.08;;
39654;SDS011;25336;59.944;11.010;2022-07-29T02:36:55;2.97;;;1.05;;
39654;SDS011;25336;59.944;11.010;2022-07-29T02:39:21;1.92;;;1.10;;
39654;SDS011;25336;59.944;11.010;2022-07-29T02:41:54;2.45;;;1.10;;
39654;SDS011;25336;59.944;11.010;2022-07-29T02:44:25;1.77;;;1.38;;
39654;SDS011;25336;59.944;11.010;2022-07-29T02:46:59;2.30;;;1.40;;
39654;SDS011;25336;59.944;11.010;2022-07-29T02:49:38;1.10;;;1.00;;
39654;SDS011;25336;59.944;11.010;2022-07-29T02:52:08;1.80;;;1.50;;
39654;SDS011;25336;59.944;11.010;2022-07-29T02:54:53;3.10;;;1.13;;
39654;SDS011;25336;59.944;11.010;2022-07-29T02:57:58;1.48;;;1.13;;
39654;SDS011;25336;59.944;11.010;2022-07-29T03:00:28;1.50;;;0.98;;
39654;SDS011;25336;59.944;11.010;2022-07-29T03:02:58;3.45;;;1.40;;
39654;SDS011;25336;59.944;11.010;2022-07-29T03:05:26;2.53;;;1.00;;
39654;SDS011;25336;59.944;11.010;2022-07-29T03:08:12;1.10;;;1.10;;
39654;SDS011;25336;59.944;11.010;2022-07-29T03:10:39;1.77;;;1.20;;
39654;SDS011;25336;59.944;11.010;2022-07-29T03:13:09;1.35;;;1.10;;
39654;SDS011;25336;59.944;11.010;2022-07-29T03:15:35;3.58;;;1.40;;
39654;SDS011;25336;59.944;11.010;2022-07-29T03:18:01;0.93;;;0.90;;
39654;SDS011;25336;59.944;11.010;2022-07-29T03:20:27;3.88;;;1.10;;
39654;SDS011;25336;59.944;11.010;2022-07-29T03:22:53;1.10;;;1.00;;
39654;SDS011;25336;59.944;11.010;2022-07-29T03:25:19;1.42;;;1.08;;
39654;SDS011;25336;59.944;11.010;2022-07-29T03:27:45;1.35;;;1.20;;
39654;SDS011;25336;59.944;11.010;2022-07-29T03:30:12;1.10;;;1.08;;
39654;SDS011;25336;59.944;11.010;2022-07-29T03:32:39;3.58;;;1.60;;
39654;SDS011;25336;59.944;11.010;2022-07-29T03:35:06;1.33;;;1.23;;
39654;SDS011;25336;59.944;11.010;2022-07-29T03:37:32;1.48;;;1.20;;
39654;SDS011;25336;59.944;11.010;2022-07-29T03:39:58;3.38;;;1.30;;
39654;SDS011;25336;59.944;11.010;2022-07-29T03:42:27;1.10;;;1.10;;
39654;SDS011;25336;59.944;11.010;2022-07-29T03:44:56;2.15;;;1.10;;
39654;SDS011;25336;59.944;11.010;2022-07-29T03:47:24;1.20;;;1.10;;
39654;SDS011;25336;59.944;11.010;2022-07-29T03:49:53;0.80;;;0.80;;
39654;SDS011;25336;59.944;11.010;2022-07-29T03:52:23;2.10;;;1.20;;
39654;SDS011;25336;59.944;11.010;2022-07-29T03:54:49;1.30;;;1.10;;
39654;SDS011;25336;59.944;11.010;2022-07-29T03:57:15;4.15;;;1.23;;
39654;SDS011;25336;59.944;11.010;2022-07-29T03:59:43;1.65;;;1.00;;
39654;SDS011;25336;59.944;11.010;2022-07-29T04:02:10;1.90;;;1.10;;
39654;SDS011;25336;59.944;11.010;2022-07-29T04:04:37;1.42;;;1.33;;
39654;SDS011;25336;59.944;11.010;2022-07-29T04:07:03;1.70;;;1.30;;
39654;SDS011;25336;59.944;11.010;2022-07-29T04:09:29;1.10;;;0.93;;
39654;SDS011;25336;59.944;11.010;2022-07-29T04:11:55;1.20;;;1.05;;
39654;SDS011;25336;59.944;11.010;2022-07-29T04:14:21;1.23;;;1.13;;
39654;SDS011;25336;59.944;11.010;2022-07-29T04:16:46;1.80;;;1.00;;
39654;SDS011;25336;59.944;11.010;2022-07-29T04:19:12;1.25;;;1.20;;
39654;SDS011;25336;59.944;11.010;2022-07-29T04:21:38;2.78;;;0.85;;
39654;SDS011;25336;59.944;11.010;2022-07-29T04:24:05;1.75;;;1.10;;
39654;SDS011;25336;59.944;11.010;2022-07-29T04:26:32;0.82;;;0.82;;
39654;SDS011;25336;59.944;11.010;2022-07-29T04:28:58;1.50;;;1.20;;
39654;SDS011;25336;59.944;11.010;2022-07-29T04:31:24;1.52;;;1.00;;
39654;SDS011;25336;59.944;11.010;2022-07-29T04:33:49;0.80;;;0.80;;
39654;SDS011;25336;59.944;11.010;2022-07-29T04:36:15;2.15;;;1.00;;
39654;SDS011;25336;59.944;11.010;2022-07-29T04:38:40;1.65;;;1.20;;
39654;SDS011;25336;59.944;11.010;2022-07-29T04:41:06;1.05;;;1.00;;
39654;SDS011;25336;59.944;11.010;2022-07-29T04:43:33;4.60;;;1.10;;
39654;SDS011;25336;59.944;11.010;2022-07-29T04:46:02;0.73;;;0.73;;
39654;SDS011;25336;59.944;11.010;2022-07-29T04:48:28;1.58;;;1.38;;
39654;SDS011;25336;59.944;11.010;2022-07-29T04:50:56;5.97;;;1.60;;
39654;SDS011;25336;59.944;11.010;2022-07-29T04:53:21;1.60;;;1.00;;
39654;SDS011;25336;59.944;11.010;2022-07-29T04:55:47;1.33;;;0.95;;
39654;SDS011;25336;59.944;11.010;2022-07-29T04:58:13;1.25;;;1.15;;
39654;SDS011;25336;59.944;11.010;2022-07-29T05:00:39;1.48;;;1.38;;
39654;SDS011;25336;59.944;11.010;2022-07-29T05:03:04;1.45;;;1.17;;
39654;SDS011;25336;59.944;11.010;2022-07-29T05:05:30;1.17;;;1.10;;
39654;SDS011;25336;59.944;11.010;2022-07-29T05:07:56;1.65;;;1.17;;
39654;SDS011;25336;59.944;11.010;2022-07-29T05:10:22;1.10;;;1.00;;
39654;SDS011;25336;59.944;11.010;2022-07-29T05:12:47;1.30;;;1.05;;
39654;SDS011;25336;59.944;11.010;2022-07-29T05:15:13;2.35;;;1.33;;
39654;SDS011;25336;59.944;11.010;2022-07-29T05:17:39;0.80;;;0.80;;
39654;SDS011;25336;59.944;11.010;2022-07-29T05:20:05;2.55;;;1.02;;
39654;SDS011;25336;59.944;11.010;2022-07-29T05:22:31;1.17;;;0.88;;
39654;SDS011;25336;59.944;11.010;2022-07-29T05:24:57;1.20;;;1.10;;
39654;SDS011;25336;59.944;11.010;2022-07-29T05:27:22;1.25;;;1.15;;
39654;SDS011;25336;59.944;11.010;2022-07-29T05:29:48;1.10;;;0.98;;
39654;SDS011;25336;59.944;11.010;2022-07-29T05:32:13;2.40;;;1.00;;
39654;SDS011;25336;59.944;11.010;2022-07-29T05:34:39;1.33;;;0.90;;
39654;SDS011;25336;59.944;11.010;2022-07-29T05:37:06;1.58;;;1.48;;
39654;SDS011;25336;59.944;11.010;2022-07-29T05:39:31;0.90;;;0.90;;
39654;SDS011;25336;59.944;11.010;2022-07-29T05:41:57;1.30;;;1.17;;
39654;SDS011;25336;59.944;11.010;2022-07-29T05:44:23;2.08;;;0.90;;
39654;SDS011;25336;59.944;11.010;2022-07-29T05:46:48;1.58;;;1.10;;
39654;SDS011;25336;59.944;11.010;2022-07-29T05:49:14;1.00;;;0.90;;
39654;SDS011;25336;59.944;11.010;2022-07-29T05:51:39;1.63;;;0.98;;
39654;SDS011;25336;59.944;11.010;2022-07-29T05:54:05;4.35;;;1.15;;
39654;SDS011;25336;59.944;11.010;2022-07-29T05:56:31;0.80;;;0.80;;
39654;SDS011;25336;59.944;11.010;2022-07-29T05:58:56;1.20;;;1.10;;
39654;SDS011;25336;59.944;11.010;2022-07-29T06:01:22;2.15;;;0.90;;
39654;SDS011;25336;59.944;11.010;2022-07-29T06:03:48;2.65;;;1.25;;
39654;SDS011;25336;59.944;11.010;2022-07-29T06:06:13;1.00;;;1.00;;
39654;SDS011;25336;59.944;11.010;2022-07-29T06:08:39;0.80;;;0.80;;
39654;SDS011;25336;59.944;11.010;2022-07-29T06:11:05;1.05;;;1.00;;
39654;SDS011;25336;59.944;11.010;2022-07-29T06:13:32;1.08;;;1.00;;
39654;SDS011;25336;59.944;11.010;2022-07-29T06:15:57;1.08;;;1.08;;
39654;SDS011;25336;59.944;11.010;2022-07-29T06:18:23;2.90;;;1.05;;
39654;SDS011;25336;59.944;11.010;2022-07-29T06:20:52;3.60;;;1.10;;
39654;SDS011;25336;59.944;11.010;2022-07-29T06:23:18;1.30;;;1.20;;
39654;SDS011;25336;59.944;11.010;2022-07-29T06:25:44;1.25;;;1.15;;
39654;SDS011;25336;59.944;11.010;2022-07-29T06:28:10;1.92;;;1.45;;
39654;SDS011;25336;59.944;11.010;2022-07-29T06:30:35;1.05;;;0.95;;
39654;SDS011;25336;59.944;11.010;2022-07-29T06:33:01;2.97;;;1.30;;
39654;SDS011;25336;59.944;11.010;2022-07-29T06:35:27;3.15;;;1.00;;
39654;SDS011;25336;59.944;11.010;2022-07-29T06:37:53;2.33;;;1.42;;
39654;SDS011;25336;59.944;11.010;2022-07-29T06:40:19;5.50;;;1.33;;
39654;SDS011;25336;59.944;11.010;2022-07-29T06:43:04;2.90;;;1.23;;
39654;SDS011;25336;59.944;11.010;2022-07-29T06:45:30;1.83;;;1.50;;
39654;SDS011;25336;59.944;11.010;2022-07-29T06:47:59;1.80;;;1.27;;
39654;SDS011;25336;59.944;11.010;2022-07-29T06:50:24;1.73;;;1.48;;
39654;SDS011;25336;59.944;11.010;2022-07-29T06:52:50;2.45;;;1.38;;
39654;SDS011;25336;59.944;11.010;2022-07-29T06:55:15;7.00;;;1.90;;
39654;SDS011;25336;59.944;11.010;2022-07-29T06:57:41;1.73;;;1.33;;
39654;SDS011;25336;59.944;11.010;2022-07-29T07:00:07;1.65;;;1.17;;
39654;SDS011;25336;59.944;11.010;2022-07-29T07:02:33;4.13;;;1.20;;
39654;SDS011;25336;59.944;11.010;2022-07-29T07:04:59;4.18;;;1.85;;
39654;SDS011;25336;59.944;11.010;2022-07-29T07:07:24;4.35;;;1.98;;
39654;SDS011;25336;59.944;11.010;2022-07-29T07:09:50;2.22;;;1.27;;
39654;SDS011;25336;59.944;11.010;2022-07-29T07:12:16;12.43;;;1.45;;
39654;SDS011;25336;59.944;11.010;2022-07-29T07:14:41;2.28;;;1.40;;
39654;SDS011;25336;59.944;11.010;2022-07-29T07:17:07;1.83;;;1.13;;
39654;SDS011;25336;59.944;11.010;2022-07-29T07:19:33;1.48;;;1.05;;
39654;SDS011;25336;59.944;11.010;2022-07-29T07:21:58;3.40;;;1.20;;
39654;SDS011;25336;59.944;11.010;2022-07-29T07:24:24;2.95;;;1.33;;
39654;SDS011;25336;59.944;11.010;2022-07-29T07:26:50;3.08;;;1.23;;
39654;SDS011;25336;59.944;11.010;2022-07-29T07:29:16;1.88;;;1.08;;
39654;SDS011;25336;59.944;11.010;2022-07-29T07:31:41;1.20;;;1.10;;
39654;SDS011;25336;59.944;11.010;2022-07-29T07:34:07;1.80;;;1.08;;
39654;SDS011;25336;59.944;11.010;2022-07-29T07:36:33;2.15;;;1.23;;
39654;SDS011;25336;59.944;11.010;2022-07-29T07:38:58;2.70;;;1.00;;
39654;SDS011;25336;59.944;11.010;2022-07-29T07:41:24;2.28;;;1.20;;
39654;SDS011;25336;59.944;11.010;2022-07-29T07:43:49;2.22;;;1.05;;
39654;SDS011;25336;59.944;11.010;2022-07-29T07:46:15;4.22;;;1.60;;
39654;SDS011;25336;59.944;11.010;2022-07-29T07:48:41;2.38;;;1.20;;
39654;SDS011;25336;59.944;11.010;2022-07-29T07:51:06;2.65;;;1.40;;
39654;SDS011;25336;59.944;11.010;2022-07-29T07:53:33;1.60;;;0.95;;
39654;SDS011;25336;59.944;11.010;2022-07-29T07:55:59;2.75;;;1.10;;
39654;SDS011;25336;59.944;11.010;2022-07-29T07:58:25;2.20;;;1.10;;
39654;SDS011;25336;59.944;11.010;2022-07-29T08:00:51;2.60;;;1.02;;
39654;SDS011;25336;59.944;11.010;2022-07-29T08:03:17;1.83;;;1.10;;
39654;SDS011;25336;59.944;11.010;2022-07-29T08:05:43;2.80;;;1.20;;
39654;SDS011;25336;59.944;11.010;2022-07-29T08:08:08;2.47;;;1.23;;
39654;SDS011;25336;59.944;11.010;2022-07-29T08:10:34;1.05;;;0.90;;
39654;SDS011;25336;59.944;11.010;2022-07-29T08:13:19;2.80;;;1.30;;
39654;SDS011;25336;59.944;11.010;2022-07-29T08:15:46;2.78;;;1.35;;
39654;SDS011;25336;59.944;11.010;2022-07-29T08:18:12;3.22;;;1.10;;
39654;SDS011;25336;59.944;11.010;2022-07-29T08:20:38;1.88;;;1.02;;
39654;SDS011;25336;59.944;11.010;2022-07-29T08:23:05;3.78;;;1.27;;
39654;SDS011;25336;59.944;11.010;2022-07-29T08:25:40;1.88;;;1.05;;
39654;SDS011;25336;59.944;11.010;2022-07-29T08:28:06;2.00;;;1.05;;
39654;SDS011;25336;59.944;11.010;2022-07-29T08:30:33;2.88;;;0.88;;
39654;SDS011;25336;59.944;11.010;2022-07-29T08:32:59;4.07;;;1.27;;
39654;SDS011;25336;59.944;11.010;2022-07-29T08:35:25;2.33;;;1.02;;
39654;SDS011;25336;59.944;11.010;2022-07-29T08:37:51;4.20;;;1.13;;
39654;SDS011;25336;59.944;11.010;2022-07-29T08:40:17;1.05;;;0.80;;
39654;SDS011;25336;59.944;11.010;2022-07-29T08:42:45;1.90;;;1.05;;
39654;SDS011;25336;59.944;11.010;2022-07-29T08:45:11;2.70;;;1.00;;
39654;SDS011;25336;59.944;11.010;2022-07-29T08:47:40;1.30;;;0.73;;
39654;SDS011;25336;59.944;11.010;2022-07-29T08:50:07;1.52;;;0.70;;
39654;SDS011;25336;59.944;11.010;2022-07-29T08:52:35;0.55;;;0.55;;
39654;SDS011;25336;59.944;11.010;2022-07-29T08:55:02;2.10;;;0.70;;
39654;SDS011;25336;59.944;11.010;2022-07-29T08:57:30;2.05;;;0.80;;
39654;SDS011;25336;59.944;11.010;2022-07-29T08:59:57;1.88;;;0.80;;
39654;SDS011;25336;59.944;11.010;2022-07-29T09:02:26;0.60;;;0.55;;
39654;SDS011;25336;59.944;11.010;2022-07-29T09:04:54;1.25;;;0.70;;
39654;SDS011;25336;59.944;11.010;2022-07-29T09:07:25;2.08;;;0.73;;
39654;SDS011;25336;59.944;11.010;2022-07-29T09:09:50;2.53;;;0.68;;
39654;SDS011;25336;59.944;11.010;2022-07-29T09:12:16;0.82;;;0.60;;
39654;SDS011;25336;59.944;11.010;2022-07-29T09:14:42;1.27;;;0.80;;
39654;SDS011;25336;59.944;11.010;2022-07-29T09:17:08;1.27;;;0.70;;
39654;SDS011;25336;59.944;11.010;2022-07-29T09:19:34;1.70;;;0.70;;
39654;SDS011;25336;59.944;11.010;2022-07-29T09:22:02;0.60;;;0.60;;
39654;SDS011;25336;59.944;11.010;2022-07-29T09:24:46;1.50;;;0.82;;
39654;SDS011;25336;59.944;11.010;2022-07-29T09:27:22;0.70;;;0.70;;
39654;SDS011;25336;59.944;11.010;2022-07-29T09:30:02;1.63;;;0.80;;
39654;SDS011;25336;59.944;11.010;2022-07-29T09:32:58;1.52;;;0.60;;
39654;SDS011;25336;59.944;11.010;2022-07-29T09:35:26;1.73;;;0.63;;
39654;SDS011;25336;59.944;11.010;2022-07-29T09:37:53;0.73;;;0.60;;
39654;SDS011;25336;59.944;11.010;2022-07-29T09:40:20;1.13;;;0.70;;
39654;SDS011;25336;59.944;11.010;2022-07-29T09:45:32;0.88;;;0.73;;
39654;SDS011;25336;59.944;11.010;2022-07-29T09:47:59;1.48;;;0.70;;
39654;SDS011;25336;59.944;11.010;2022-07-29T09:50:38;0.93;;;0.60;;
39654;SDS011;25336;59.944;11.010;2022-07-29T09:53:05;0.82;;;0.60;;
39654;SDS011;25336;59.944;11.010;2022-07-29T09:55:31;1.63;;;0.70;;
39654;SDS011;25336;59.944;11.010;2022-07-29T09:58:16;0.82;;;0.43;;
39654;SDS011;25336;59.944;11.010;2022-07-29T10:00:43;1.40;;;0.82;;
39654;SDS011;25336;59.944;11.010;2022-07-29T10:03:10;0.77;;;0.70;;
39654;SDS011;25336;59.944;11.010;2022-07-29T10:05:37;1.33;;;0.70;;
39654;SDS011;25336;59.944;11.010;2022-07-29T10:08:02;1.73;;;0.95;;
39654;SDS011;25336;59.944;11.010;2022-07-29T10:10:29;3.08;;;0.60;;
39654;SDS011;25336;59.944;11.010;2022-07-29T10:13:00;1.20;;;0.60;;
39654;SDS011;25336;59.944;11.010;2022-07-29T10:15:28;0.60;;;0.60;;
39654;SDS011;25336;59.944;11.010;2022-07-29T10:17:58;0.68;;;0.50;;
39654;SDS011;25336;59.944;11.010;2022-07-29T10:20:25;0.70;;;0.70;;
39654;SDS011;25336;59.944;11.010;2022-07-29T10:22:52;0.65;;;0.60;;
39654;SDS011;25336;59.944;11.010;2022-07-29T10:25:18;3.20;;;0.80;;
39654;SDS011;25336;59.944;11.010;2022-07-29T10:27:45;2.20;;;0.70;;
39654;SDS011;25336;59.944;11.010;2022-07-29T10:30:12;0.98;;;0.60;;
39654;SDS011;25336;59.944;11.010;2022-07-29T10:32:44;1.48;;;0.60;;
39654;SDS011;25336;59.944;11.010;2022-07-29T10:46:38;2.30;;;0.90;;
39654;SDS011;25336;59.944;11.010;2022-07-29T10:49:05;1.30;;;0.70;;
39654;SDS011;25336;59.944;11.010;2022-07-29T11:05:01;0.75;;;0.50;;
39654;SDS011;25336;59.944;11.010;2022-07-29T11:07:38;0.95;;;0.80;;
39654;SDS011;25336;59.944;11.010;2022-07-29T11:10:24;0.65;;;0.60;;
39654;SDS011;25336;59.944;11.010;2022-07-29T11:12:50;1.40;;;0.65;;
39654;SDS011;25336;59.944;11.010;2022-07-29T11:15:17;1.83;;;0.95;;
39654;SDS011;25336;59.944;11.010;2022-07-29T11:18:07;2.72;;;1.00;;
39654;SDS011;25336;59.944;11.010;2022-07-29T11:20:42;3.28;;;0.73;;
39654;SDS011;25336;59.944;11.010;2022-07-29T11:23:31;0.95;;;0.50;;
39654;SDS011;25336;59.944;11.010;2022-07-29T11:26:13;0.70;;;0.70;;
39654;SDS011;25336;59.944;11.010;2022-07-29T11:28:50;2.15;;;0.70;;
39654;SDS011;25336;59.944;11.010;2022-07-29T11:31:29;0.95;;;0.70;;
39654;SDS011;25336;59.944;11.010;2022-07-29T11:39:31;1.08;;;0.60;;
39654;SDS011;25336;59.944;11.010;2022-07-29T11:47:27;1.08;;;0.50;;
39654;SDS011;25336;59.944;11.010;2022-07-29T11:49:54;1.05;;;0.50;;
39654;SDS011;25336;59.944;11.010;2022-07-29T11:52:34;0.40;;;0.40;;
39654;SDS011;25336;59.944;11.010;2022-07-29T11:55:17;2.25;;;0.60;;
39654;SDS011;25336;59.944;11.010;2022-07-29T12:00:26;0.47;;;0.47;;
39654;SDS011;25336;59.944;11.010;2022-07-29T12:02:54;0.80;;;0.50;;
39654;SDS011;25336;59.944;11.010;2022-07-29T12:05:20;0.45;;;0.45;;
39654;SDS011;25336;59.944;11.010;2022-07-29T12:07:54;1.05;;;0.40;;
39654;SDS011;25336;59.944;11.010;2022-07-29T12:10:20;2.53;;;0.70;;
39654;SDS011;25336;59.944;11.010;2022-07-29T12:12:51;0.50;;;0.43;;
39654;SDS011;25336;59.944;11.010;2022-07-29T12:15:17;0.70;;;0.50;;
39654;SDS011;25336;59.944;11.010;2022-07-29T12:17:45;0.93;;;0.50;;
39654;SDS011;25336;59.944;11.010;2022-07-29T12:20:12;0.30;;;0.30;;
39654;SDS011;25336;59.944;11.010;2022-07-29T12:22:41;0.57;;;0.50;;
39654;SDS011;25336;59.944;11.010;2022-07-29T12:25:10;0.85;;;0.50;;
39654;SDS011;25336;59.944;11.010;2022-07-29T12:27:39;1.17;;;0.60;;
39654;SDS011;25336;59.944;11.010;2022-07-29T12:30:06;0.82;;;0.50;;
39654;SDS011;25336;59.944;11.010;2022-07-29T12:32:37;0.60;;;0.50;;
39654;SDS011;25336;59.944;11.010;2022-07-29T12:35:06;1.65;;;0.40;;
39654;SDS011;25336;59.944;11.010;2022-07-29T12:37:34;1.05;;;0.45;;
39654;SDS011;25336;59.944;11.010;2022-07-29T12:40:02;0.60;;;0.60;;
39654;SDS011;25336;59.944;11.010;2022-07-29T12:42:30;0.52;;;0.52;;
39654;SDS011;25336;59.944;11.010;2022-07-29T12:44:55;1.92;;;0.70;;
39654;SDS011;25336;59.944;11.010;2022-07-29T12:47:21;0.45;;;0.43;;
39654;SDS011;25336;59.944;11.010;2022-07-29T12:49:48;0.77;;;0.57;;
39654;SDS011;25336;59.944;11.010;2022-07-29T12:52:30;0.43;;;0.40;;
39654;SDS011;25336;59.944;11.010;2022-07-29T12:54:57;1.48;;;0.60;;
39654;SDS011;25336;59.944;11.010;2022-07-29T12:57:23;0.65;;;0.60;;
39654;SDS011;25336;59.944;11.010;2022-07-29T13:02:36;1.23;;;0.70;;
39654;SDS011;25336;59.944;11.010;2022-07-29T13:05:02;1.10;;;0.57;;
39654;SDS011;25336;59.944;11.010;2022-07-29T13:07:30;1.00;;;0.50;;
39654;SDS011;25336;59.944;11.010;2022-07-29T13:10:16;1.13;;;0.50;;
39654;SDS011;25336;59.944;11.010;2022-07-29T13:15:46;0.60;;;0.53;;
39654;SDS011;25336;59.944;11.010;2022-07-29T13:18:31;1.83;;;0.60;;
39654;SDS011;25336;59.944;11.010;2022-07-29T13:21:11;1.25;;;0.75;;
39654;SDS011;25336;59.944;11.010;2022-07-29T13:23:38;0.55;;;0.52;;
39654;SDS011;25336;59.944;11.010;2022-07-29T13:26:07;0.50;;;0.47;;
39654;SDS011;25336;59.944;11.010;2022-07-29T13:28:35;0.50;;;0.50;;
39654;SDS011;25336;59.944;11.010;2022-07-29T13:31:01;0.63;;;0.52;;
39654;SDS011;25336;59.944;11.010;2022-07-29T13:33:26;1.75;;;0.57;;
39654;SDS011;25336;59.944;11.010;2022-07-29T13:35:52;0.40;;;0.40;;
39654;SDS011;25336;59.944;11.010;2022-07-29T13:38:18;1.00;;;0.70;;
39654;SDS011;25336;59.944;11.010;2022-07-29T13:40:43;1.45;;;0.63;;
39654;SDS011;25336;59.944;11.010;2022-07-29T13:43:09;0.50;;;0.50;;
39654;SDS011;25336;59.944;11.010;2022-07-29T13:45:36;1.58;;;0.70;;
39654;SDS011;25336;59.944;11.010;2022-07-29T13:48:02;0.40;;;0.40;;
39654;SDS011;25336;59.944;11.010;2022-07-29T13:50:28;1.13;;;0.63;;
39654;SDS011;25336;59.944;11.010;2022-07-29T13:52:53;2.88;;;1.13;;
39654;SDS011;25336;59.944;11.010;2022-07-29T13:55:19;1.23;;;0.55;;
39654;SDS011;25336;59.944;11.010;2022-07-29T13:57:45;0.88;;;0.60;;
39654;SDS011;25336;59.944;11.010;2022-07-29T14:00:11;0.50;;;0.47;;
39654;SDS011;25336;59.944;11.010;2022-07-29T14:02:37;1.27;;;0.80;;
39654;SDS011;25336;59.944;11.010;2022-07-29T14:05:03;0.77;;;0.60;;
39654;SDS011;25336;59.944;11.010;2022-07-29T14:07:30;0.60;;;0.40;;
39654;SDS011;25336;59.944;11.010;2022-07-29T14:09:56;2.13;;;0.75;;
39654;SDS011;25336;59.944;11.010;2022-07-29T14:12:21;1.33;;;0.60;;
39654;SDS011;25336;59.944;11.010;2022-07-29T14:14:47;0.50;;;0.40;;
39654;SDS011;25336;59.944;11.010;2022-07-29T14:17:14;1.95;;;0.60;;
39654;SDS011;25336;59.944;11.010;2022-07-29T14:19:40;0.47;;;0.47;;
39654;SDS011;25336;59.944;11.010;2022-07-29T14:22:07;0.50;;;0.50;;
39654;SDS011;25336;59.944;11.010;2022-07-29T14:24:33;0.93;;;0.50;;
39654;SDS011;25336;59.944;11.010;2022-07-29T14:26:59;1.60;;;0.60;;
39654;SDS011;25336;59.944;11.010;2022-07-29T14:29:25;2.22;;;0.60;;
39654;SDS011;25336;59.944;11.010;2022-07-29T14:31:51;0.50;;;0.50;;
39654;SDS011;25336;59.944;11.010;2022-07-29T14:34:17;0.50;;;0.50;;
39654;SDS011;25336;59.944;11.010;2022-07-29T14:36:43;0.77;;;0.50;;
39654;SDS011;25336;59.944;11.010;2022-07-29T14:39:09;0.60;;;0.60;;
39654;SDS011;25336;59.944;11.010;2022-07-29T14:41:34;0.50;;;0.50;;
39654;SDS011;25336;59.944;11.010;2022-07-29T14:44:00;0.43;;;0.43;;
39654;SDS011;25336;59.944;11.010;2022-07-29T14:46:26;2.80;;;0.50;;
39654;SDS011;25336;59.944;11.010;2022-07-29T14:48:52;0.40;;;0.40;;
39654;SDS011;25336;59.944;11.010;2022-07-29T14:51:17;0.43;;;0.40;;
39654;SDS011;25336;59.944;11.010;2022-07-29T14:53:43;3.15;;;0.50;;
39654;SDS011;25336;59.944;11.010;2022-07-29T14:56:09;0.45;;;0.40;;
39654;SDS011;25336;59.944;11.010;2022-07-29T14:58:35;0.68;;;0.57;;
39654;SDS011;25336;59.944;11.010;2022-07-29T15:01:00;1.60;;;0.52;;
39654;SDS011;25336;59.944;11.010;2022-07-29T15:03:26;1.70;;;0.73;;
39654;SDS011;25336;59.944;11.010;2022-07-29T15:05:55;1.08;;;0.60;;
39654;SDS011;25336;59.944;11.010;2022-07-29T15:08:21;0.80;;;0.60;;
39654;SDS011;25336;59.944;11.010;2022-07-29T15:10:46;0.60;;;0.50;;
39654;SDS011;25336;59.944;11.010;2022-07-29T15:13:12;0.63;;;0.60;;
39654;SDS011;25336;59.944;11.010;2022-07-29T15:15:38;1.83;;;0.50;;
39654;SDS011;25336;59.944;11.010;2022-07-29T15:18:04;1.05;;;0.50;;
39654;SDS011;25336;59.944;11.010;2022-07-29T15:20:29;1.20;;;0.52;;
39654;SDS011;25336;59.944;11.010;2022-07-29T15:22:55;1.02;;;0.55;;
39654;SDS011;25336;59.944;11.010;2022-07-29T15:25:22;0.90;;;0.70;;
39654;SDS011;25336;59.944;11.010;2022-07-29T15:27:48;1.80;;;0.50;;
39654;SDS011;25336;59.944;11.010;2022-07-29T15:30:14;0.77;;;0.70;;
39654;SDS011;25336;59.944;11.010;2022-07-29T15:32:43;0.70;;;0.45;;
39654;SDS011;25336;59.944;11.010;2022-07-29T15:35:09;2.15;;;1.13;;
39654;SDS011;25336;59.944;11.010;2022-07-29T15:37:35;0.68;;;0.68;;